Time;durP1;ratioP1;P1;durP2;ratioP2;P2;SDS_P1;SDS_P2;PMS_P1;PMS_P2;Temp;Humidity;BMP_temperature;BMP_pressure;BME280_temperature;BME280_humidity;BME280_pressure;Samples;Min_cycle;Max_cycle;Signal;HPM_P1;HPM_P2
2022/05/27 00:02:36;;;;;;;1.10;0.90;;;25.60;52.40;;;;;;5028909;28;20499;-89
2022/05/27 00:05:02;;;;;;;1.33;1.07;;;25.60;52.40;;;;;;5010440;28;20518;-88
2022/05/27 00:07:37;;;;;;;1.23;0.77;;;25.60;52.40;;;;;;5009844;28;20439;-88
2022/05/27 00:10:04;;;;;;;1.87;1.10;;;25.60;52.40;;;;;;5019994;28;20430;-88
2022/05/27 00:12:29;;;;;;;1.40;1.00;;;25.60;52.40;;;;;;5018022;28;20470;-88
2022/05/27 00:18:18;;;;;;;1.50;1.00;;;25.60;52.40;;;;;;5033659;28;20184;-88
2022/05/27 00:20:44;;;;;;;1.10;1.00;;;25.60;52.40;;;;;;5019414;28;20412;-88
2022/05/27 00:23:10;;;;;;;1.10;0.90;;;25.60;52.50;;;;;;5033475;28;20412;-88
2022/05/27 00:25:36;;;;;;;1.80;1.03;;;25.50;52.40;;;;;;4999678;28;20443;-88
2022/05/27 00:28:05;;;;;;;1.57;1.20;;;25.60;52.40;;;;;;5018532;28;20184;-88
2022/05/27 00:30:32;;;;;;;1.57;1.00;;;25.60;52.40;;;;;;5024333;28;20415;-88
2022/05/27 00:32:58;;;;;;;1.60;1.40;;;25.60;52.40;;;;;;5012917;28;20467;-88
2022/05/27 00:35:24;;;;;;;1.37;1.00;;;25.60;52.40;;;;;;5013664;28;20434;-88
2022/05/27 00:37:49;;;;;;;1.10;0.83;;;25.60;52.40;;;;;;5013806;28;20180;-88
2022/05/27 00:40:19;;;;;;;1.30;1.00;;;25.60;52.40;;;;;;5030168;28;20195;-88
2022/05/27 00:42:46;;;;;;;1.20;0.90;;;25.60;52.40;;;;;;5013228;28;20188;-88
2022/05/27 00:45:25;;;;;;;1.97;1.23;;;25.60;52.40;;;;;;5030564;28;20542;-88
2022/05/27 00:47:56;;;;;;;1.77;1.10;;;25.60;52.40;;;;;;5022002;28;20422;-87
2022/05/27 00:50:27;;;;;;;1.43;0.80;;;25.60;52.40;;;;;;5046377;28;20434;-87
2022/05/27 00:52:53;;;;;;;1.30;0.87;;;25.60;52.40;;;;;;5013005;28;20451;-87
2022/05/27 00:55:23;;;;;;;1.63;1.03;;;25.60;52.40;;;;;;5030801;28;20434;-87
2022/05/27 00:57:54;;;;;;;1.70;1.00;;;25.60;52.40;;;;;;5031498;28;20411;-87
2022/05/27 01:00:25;;;;;;;1.40;1.10;;;25.60;52.40;;;;;;5013535;28;20441;-87
2022/05/27 01:02:53;;;;;;;1.20;1.00;;;25.60;52.40;;;;;;5030712;28;20416;-87
2022/05/27 01:05:22;;;;;;;1.20;1.00;;;25.60;52.40;;;;;;5013341;28;20419;-88
2022/05/27 01:07:55;;;;;;;1.40;1.23;;;25.60;52.40;;;;;;5024070;28;20430;-88
2022/05/27 01:10:21;;;;;;;2.27;1.27;;;25.60;52.40;;;;;;4993086;28;20423;-88
2022/05/27 01:12:54;;;;;;;1.90;0.87;;;25.60;52.40;;;;;;4994656;28;20531;-88
2022/05/27 01:15:43;;;;;;;1.73;1.00;;;25.60;52.40;;;;;;4993998;28;20423;-88
2022/05/27 01:21:32;;;;;;;1.10;0.90;;;25.60;52.40;;;;;;5010238;28;20403;-88
2022/05/27 01:24:49;;;;;;;1.77;1.07;;;25.60;52.40;;;;;;4993610;28;20416;-88
2022/05/27 01:27:45;;;;;;;1.50;1.17;;;25.60;52.40;;;;;;4954064;29;20429;-88
2022/05/27 01:30:23;;;;;;;1.10;0.90;;;25.60;52.50;;;;;;4970089;28;20764;-88
2022/05/27 01:33:07;;;;;;;1.37;0.90;;;25.60;52.50;;;;;;4966199;28;20468;-88
2022/05/27 01:36:05;;;;;;;1.43;1.00;;;25.60;52.50;;;;;;4973730;28;20429;-88
2022/05/27 01:38:37;;;;;;;1.93;0.80;;;25.60;52.50;;;;;;4971979;28;20421;-88
2022/05/27 01:41:27;;;;;;;1.33;1.00;;;25.60;52.50;;;;;;4972518;28;20488;-88
2022/05/27 01:44:11;;;;;;;1.30;0.90;;;25.60;52.50;;;;;;4988906;28;20413;-88
2022/05/27 01:46:49;;;;;;;1.50;1.00;;;25.60;52.50;;;;;;4989151;28;20604;-88
2022/05/27 01:49:18;;;;;;;1.13;0.90;;;25.60;52.50;;;;;;4989235;28;20417;-87
2022/05/27 01:51:54;;;;;;;1.73;0.80;;;25.60;52.50;;;;;;4971856;28;20460;-87
2022/05/27 01:54:35;;;;;;;1.10;0.80;;;25.60;52.50;;;;;;4988798;28;20432;-88
2022/05/27 01:57:17;;;;;;;0.90;0.70;;;25.60;52.50;;;;;;4971098;28;20828;-87
2022/05/27 01:59:58;;;;;;;1.20;0.90;;;25.60;52.50;;;;;;4988006;28;20409;-86
2022/05/27 02:02:27;;;;;;;1.30;0.93;;;25.60;52.50;;;;;;4989707;28;20415;-87
2022/05/27 02:05:06;;;;;;;1.80;1.13;;;25.60;52.50;;;;;;5011402;28;20426;-89
2022/05/27 02:07:49;;;;;;;2.53;1.17;;;25.60;52.40;;;;;;5012531;28;20510;-89
2022/05/27 02:10:25;;;;;;;0.93;0.80;;;25.60;52.50;;;;;;5012071;28;20446;-88
2022/05/27 02:12:58;;;;;;;1.00;0.80;;;25.60;52.50;;;;;;5012807;28;20466;-89
2022/05/27 02:15:30;;;;;;;1.10;0.80;;;25.60;52.40;;;;;;5045491;28;20914;-89
2022/05/27 02:18:07;;;;;;;1.33;0.90;;;25.60;52.40;;;;;;5029920;28;20399;-88
2022/05/27 02:20:37;;;;;;;1.83;1.10;;;25.60;52.40;;;;;;5029633;28;20486;-89
2022/05/27 02:23:19;;;;;;;0.90;0.70;;;25.60;52.40;;;;;;5029720;28;20427;-88
2022/05/27 02:25:48;;;;;;;1.80;0.90;;;25.60;52.40;;;;;;5029190;28;20439;-88
2022/05/27 02:28:22;;;;;;;1.53;1.00;;;25.60;52.40;;;;;;5011614;28;20454;-88
2022/05/27 02:30:54;;;;;;;3.40;3.00;;;25.60;52.50;;;;;;5011663;28;20426;-88
2022/05/27 02:36:36;;;;;;;1.20;0.80;;;25.60;52.40;;;;;;5029207;28;20394;-89
2022/05/27 02:39:04;;;;;;;1.23;0.97;;;25.60;52.50;;;;;;5011168;28;20960;-88
2022/05/27 02:41:43;;;;;;;1.87;0.90;;;25.60;52.50;;;;;;5011928;28;20427;-88
2022/05/27 02:44:36;;;;;;;1.40;0.87;;;25.60;52.50;;;;;;5045346;28;20412;-89
2022/05/27 02:47:02;;;;;;;1.83;0.97;;;25.60;52.50;;;;;;5029000;28;20458;-89
2022/05/27 02:49:46;;;;;;;1.20;0.90;;;25.60;52.50;;;;;;5013701;28;20432;-89
2022/05/27 02:52:22;;;;;;;1.40;0.90;;;25.60;52.50;;;;;;5015513;28;20712;-88
2022/05/27 02:55:23;;;;;;;1.10;0.80;;;25.50;52.40;;;;;;5014841;28;20458;-89
2022/05/27 02:57:52;;;;;;;1.13;1.03;;;25.60;52.50;;;;;;5032055;28;20501;-89
2022/05/27 03:00:26;;;;;;;1.40;1.00;;;25.50;52.40;;;;;;5014839;28;20505;-89
2022/05/27 03:02:53;;;;;;;1.00;0.70;;;25.60;52.50;;;;;;5032556;28;20427;-88
2022/05/27 03:05:22;;;;;;;1.30;0.87;;;25.50;52.40;;;;;;5015093;28;20423;-88
2022/05/27 03:08:08;;;;;;;1.37;0.87;;;25.60;52.50;;;;;;5032160;28;20415;-89
2022/05/27 03:10:52;;;;;;;1.37;0.90;;;25.60;52.50;;;;;;5014961;28;20403;-89
2022/05/27 03:13:27;;;;;;;1.47;1.07;;;25.60;52.50;;;;;;5030788;28;20447;-89
2022/05/27 03:16:33;;;;;;;1.17;0.90;;;25.60;52.50;;;;;;5014996;28;20410;-89
2022/05/27 03:19:27;;;;;;;1.47;1.03;;;25.50;52.40;;;;;;5014496;28;20442;-89
2022/05/27 03:22:18;;;;;;;1.07;0.87;;;25.50;52.50;;;;;;5014544;28;20427;-89
2022/05/27 03:24:53;;;;;;;1.23;0.90;;;25.50;52.50;;;;;;5031696;28;20788;-88
2022/05/27 03:27:28;;;;;;;2.53;1.17;;;25.50;52.50;;;;;;5032186;28;20739;-89
2022/05/27 03:29:58;;;;;;;1.20;0.83;;;25.50;52.50;;;;;;5013942;28;20491;-88
2022/05/27 03:32:39;;;;;;;1.00;0.80;;;25.50;52.50;;;;;;5020276;28;20981;-88
2022/05/27 03:35:28;;;;;;;2.13;1.00;;;25.50;52.50;;;;;;4994636;28;20416;-87
2022/05/27 03:38:17;;;;;;;1.00;0.80;;;25.50;52.50;;;;;;4994159;28;20443;-88
2022/05/27 03:41:01;;;;;;;1.50;0.97;;;25.50;52.50;;;;;;5012571;28;20389;-87
2022/05/27 03:43:27;;;;;;;1.87;0.80;;;25.50;52.50;;;;;;4994591;28;20426;-88
2022/05/27 03:45:59;;;;;;;1.60;0.80;;;25.50;52.50;;;;;;4994173;28;20436;-88
2022/05/27 03:48:27;;;;;;;1.20;0.90;;;25.50;52.50;;;;;;5002514;28;20435;-88
2022/05/27 03:51:00;;;;;;;1.10;0.80;;;25.50;52.50;;;;;;5011063;28;20409;-87
2022/05/27 03:54:03;;;;;;;1.00;0.70;;;25.50;52.50;;;;;;4997023;28;20455;-88
2022/05/27 03:56:12;;;;;;;1.20;0.80;;;25.50;52.50;;;;;;5031728;28;20411;-88
2022/05/27 03:58:40;;;;;;;1.40;0.70;;;25.50;52.50;;;;;;5031822;28;20820;-88
2022/05/27 04:01:06;;;;;;;1.67;1.10;;;25.50;52.50;;;;;;5046161;28;20453;-88
2022/05/27 04:03:32;;;;;;;1.10;0.80;;;25.50;52.50;;;;;;5013684;28;20435;-88
2022/05/27 04:06:04;;;;;;;0.80;0.70;;;25.50;52.50;;;;;;5013512;28;20458;-89
2022/05/27 04:11:53;;;;;;;1.07;0.90;;;25.50;52.40;;;;;;5012028;28;20467;-88
2022/05/27 04:14:19;;;;;;;1.50;0.90;;;25.50;52.50;;;;;;5028396;28;20451;-88
2022/05/27 04:16:48;;;;;;;1.10;1.00;;;25.50;52.50;;;;;;5029337;28;20423;-87
2022/05/27 04:19:16;;;;;;;1.20;0.90;;;25.50;52.50;;;;;;5013036;28;20481;-87
2022/05/27 04:21:41;;;;;;;1.77;0.90;;;25.50;52.50;;;;;;5013119;28;20429;-88
2022/05/27 04:24:08;;;;;;;1.40;0.90;;;25.60;52.60;;;;;;5013469;28;20423;-89
2022/05/27 04:27:16;;;;;;;1.30;0.87;;;25.60;52.60;;;;;;5014303;28;20191;-89
2022/05/27 04:29:46;;;;;;;1.20;0.90;;;25.60;52.50;;;;;;5010943;28;20446;-89
2022/05/27 04:32:12;;;;;;;1.27;1.10;;;25.60;52.50;;;;;;5045803;28;20469;-89
2022/05/27 04:34:38;;;;;;;1.30;1.20;;;25.60;52.40;;;;;;5029514;28;20427;-88
2022/05/27 04:37:04;;;;;;;1.50;1.10;;;25.60;52.40;;;;;;5032141;28;20442;-89
2022/05/27 04:39:30;;;;;;;1.60;1.00;;;25.60;52.40;;;;;;5013186;28;20427;-90
2022/05/27 04:41:56;;;;;;;1.70;1.20;;;25.60;52.40;;;;;;5014059;28;20518;-88
2022/05/27 04:44:25;;;;;;;1.60;1.30;;;25.60;52.30;;;;;;5015991;28;20431;-88
2022/05/27 04:46:51;;;;;;;1.10;1.00;;;25.60;52.30;;;;;;5014682;28;20583;-88
2022/05/27 04:52:02;;;;;;;1.40;1.17;;;25.60;52.20;;;;;;5031098;28;20219;-88
2022/05/27 04:54:31;;;;;;;1.57;1.20;;;25.60;52.20;;;;;;5030871;28;20407;-88
2022/05/27 04:57:20;;;;;;;1.77;1.03;;;25.60;52.20;;;;;;5031850;28;20463;-90
2022/05/27 04:59:49;;;;;;;1.27;1.00;;;25.60;52.20;;;;;;5026616;28;20920;-88
2022/05/27 05:02:21;;;;;;;2.67;1.17;;;25.60;52.20;;;;;;5019493;28;20477;-88
2022/05/27 05:04:48;;;;;;;1.20;1.10;;;25.60;52.20;;;;;;5012769;28;20448;-89
2022/05/27 05:07:14;;;;;;;1.30;1.07;;;25.60;52.20;;;;;;5012896;28;20421;-90
2022/05/27 05:09:43;;;;;;;1.70;1.30;;;25.60;52.20;;;;;;5028948;28;20407;-89
2022/05/27 05:12:11;;;;;;;1.10;1.00;;;25.60;52.20;;;;;;5010838;28;20522;-89
2022/05/27 05:14:40;;;;;;;1.67;1.07;;;25.60;52.20;;;;;;5029305;28;20438;-88
2022/05/27 05:17:06;;;;;;;1.10;1.00;;;25.60;52.20;;;;;;5029602;28;20423;-89
2022/05/27 05:19:32;;;;;;;1.87;1.10;;;25.60;52.20;;;;;;5013242;28;20420;-89
2022/05/27 05:21:58;;;;;;;1.57;1.00;;;25.60;52.20;;;;;;5012652;28;20451;-89
2022/05/27 05:24:24;;;;;;;1.93;1.17;;;25.60;52.20;;;;;;5010162;28;20940;-88
2022/05/27 05:26:53;;;;;;;1.17;0.97;;;25.60;52.20;;;;;;5010908;28;20407;-89
2022/05/27 05:29:19;;;;;;;1.33;1.17;;;25.60;52.20;;;;;;5029715;28;20228;-89
2022/05/27 05:31:45;;;;;;;1.60;1.20;;;25.60;52.10;;;;;;5027747;28;20505;-88
2022/05/27 05:34:10;;;;;;;1.10;0.87;;;25.60;52.20;;;;;;5028825;28;20228;-89
2022/05/27 05:36:39;;;;;;;1.50;1.10;;;25.60;52.10;;;;;;5010218;28;20180;-88
2022/05/27 05:39:05;;;;;;;2.17;1.00;;;25.60;52.10;;;;;;5012088;28;20684;-90
2022/05/27 05:41:37;;;;;;;1.80;1.10;;;25.60;52.10;;;;;;5028507;28;20461;-88
2022/05/27 05:44:05;;;;;;;0.93;0.83;;;25.60;52.10;;;;;;5029473;28;20395;-89
2022/05/27 05:46:36;;;;;;;0.90;0.80;;;25.60;52.10;;;;;;5028398;28;20929;-87
2022/05/27 05:49:03;;;;;;;1.47;1.13;;;25.60;52.10;;;;;;5012484;28;20481;-87
2022/05/27 05:51:34;;;;;;;2.70;1.10;;;25.60;52.20;;;;;;5011347;28;20451;-89
2022/05/27 05:54:00;;;;;;;1.10;1.00;;;25.70;52.20;;;;;;5029552;28;20395;-89
2022/05/27 05:56:30;;;;;;;1.60;1.00;;;25.70;52.10;;;;;;5012402;28;20415;-89
2022/05/27 05:58:56;;;;;;;2.27;1.00;;;25.70;52.10;;;;;;5030661;28;20406;-88
2022/05/27 06:01:23;;;;;;;1.27;1.00;;;25.70;52.10;;;;;;5023684;28;20844;-87
2022/05/27 06:03:52;;;;;;;2.27;1.30;;;25.70;52.10;;;;;;5012866;28;20177;-89
2022/05/27 06:06:32;;;;;;;1.30;0.90;;;25.70;52.10;;;;;;5047264;28;20411;-89
2022/05/27 06:12:54;;;;;;;2.13;1.07;;;25.70;52.10;;;;;;4980721;28;20514;-87
2022/05/27 06:15:43;;;;;;;1.40;1.23;;;25.60;52.10;;;;;;4915254;29;20423;-89
2022/05/27 06:18:08;;;;;;;1.20;1.10;;;25.60;52.10;;;;;;4927914;29;20456;-88
2022/05/27 06:20:37;;;;;;;1.60;1.10;;;25.60;52.10;;;;;;4932029;29;20412;-88
2022/05/27 06:23:04;;;;;;;2.47;1.17;;;25.60;52.10;;;;;;4935014;29;20242;-89
2022/05/27 06:25:30;;;;;;;1.60;1.20;;;25.60;52.10;;;;;;4931305;29;20427;-88
2022/05/27 06:34:23;;;;;;;1.50;1.10;;;25.60;52.10;;;;;;4908844;29;20853;-89
2022/05/27 06:36:13;;;;;;;2.87;1.17;;;25.70;52.20;;;;;;4929780;29;20458;-87
2022/05/27 06:38:39;;;;;;;1.67;1.40;;;25.60;52.10;;;;;;4933281;29;20416;-88
2022/05/27 06:41:05;;;;;;;1.87;1.57;;;25.70;52.10;;;;;;4914110;29;20850;-87
2022/05/27 06:46:56;;;;;;;1.10;1.00;;;25.60;52.00;;;;;;4927807;29;20443;-90
2022/05/27 06:49:22;;;;;;;1.90;0.97;;;25.70;52.00;;;;;;4930325;29;20999;-88
2022/05/27 06:51:53;;;;;;;1.33;1.00;;;25.70;52.10;;;;;;4961905;28;20459;-89
2022/05/27 06:57:42;;;;;;;1.43;1.10;;;25.70;52.00;;;;;;5006621;28;20430;-89
2022/05/27 07:00:13;;;;;;;1.10;1.00;;;25.70;52.00;;;;;;5010038;28;20419;-90
2022/05/27 07:02:41;;;;;;;1.60;1.40;;;25.70;52.10;;;;;;5021979;28;20419;-89
2022/05/27 07:05:10;;;;;;;2.87;1.70;;;25.70;52.00;;;;;;5037475;28;20530;-89
2022/05/27 07:07:39;;;;;;;1.63;1.10;;;25.70;52.00;;;;;;5021586;28;20434;-89
2022/05/27 07:10:05;;;;;;;1.30;1.20;;;25.80;52.00;;;;;;5027401;28;20454;-89
2022/05/27 07:12:32;;;;;;;1.40;1.30;;;25.80;52.00;;;;;;5010753;28;20455;-88
2022/05/27 07:14:58;;;;;;;1.80;1.30;;;25.80;52.00;;;;;;5009890;28;20423;-89
2022/05/27 07:17:24;;;;;;;1.87;1.37;;;25.80;52.00;;;;;;5010507;28;20422;-88
2022/05/27 07:19:50;;;;;;;1.50;1.23;;;25.80;51.90;;;;;;5010202;28;20203;-88
2022/05/27 07:25:38;;;;;;;1.73;1.10;;;25.80;51.90;;;;;;5022562;28;20434;-89
2022/05/27 07:28:36;;;;;;;3.00;1.23;;;25.80;51.90;;;;;;5009681;28;20453;-89
2022/05/27 07:31:02;;;;;;;1.07;0.93;;;25.80;51.90;;;;;;5009955;28;20450;-89
2022/05/27 07:33:31;;;;;;;1.93;1.10;;;25.80;51.90;;;;;;5009509;28;20458;-89
2022/05/27 07:35:57;;;;;;;1.50;1.40;;;25.80;51.90;;;;;;5026530;28;20426;-89
2022/05/27 07:38:29;;;;;;;1.40;1.13;;;25.80;51.90;;;;;;5013144;28;20415;-89
2022/05/27 07:40:58;;;;;;;1.50;1.00;;;25.80;51.90;;;;;;5013986;28;20180;-89
2022/05/27 07:43:26;;;;;;;1.40;1.10;;;25.80;51.90;;;;;;5008104;28;20416;-89
2022/05/27 07:45:52;;;;;;;1.17;1.03;;;25.80;51.90;;;;;;5013186;28;20426;-89
2022/05/27 07:48:24;;;;;;;1.40;1.00;;;25.90;51.90;;;;;;5004019;28;20806;-90
2022/05/27 07:50:50;;;;;;;1.00;0.90;;;25.90;51.90;;;;;;5007340;28;20463;-89
2022/05/27 07:53:19;;;;;;;3.57;1.23;;;25.90;51.90;;;;;;5025495;28;20455;-88
2022/05/27 07:55:45;;;;;;;1.77;1.10;;;25.90;51.90;;;;;;5004619;28;20204;-90
2022/05/27 07:58:11;;;;;;;1.30;1.20;;;25.90;51.90;;;;;;5012385;28;20442;-89
2022/05/27 08:00:40;;;;;;;3.10;2.90;;;25.90;51.90;;;;;;5031011;28;20439;-90
2022/05/27 08:03:09;;;;;;;1.70;1.30;;;25.90;51.90;;;;;;5013188;28;20429;-90
2022/05/27 08:05:35;;;;;;;2.33;2.13;;;25.90;51.90;;;;;;5029277;28;20427;-90
2022/05/27 08:08:02;;;;;;;2.63;1.80;;;25.90;51.90;;;;;;5013103;28;20431;-90
2022/05/27 08:10:36;;;;;;;2.30;1.70;;;25.90;51.90;;;;;;5029774;28;20447;-90
2022/05/27 08:13:07;;;;;;;3.60;2.30;;;25.90;51.90;;;;;;5045082;28;20458;-90
2022/05/27 08:15:34;;;;;;;2.63;1.53;;;25.90;51.90;;;;;;5012949;28;20422;-90
2022/05/27 08:18:01;;;;;;;4.33;1.57;;;25.90;51.90;;;;;;5012777;28;20477;-90
2022/05/27 08:20:31;;;;;;;1.80;1.57;;;25.90;52.00;;;;;;5010491;28;20837;-90
2022/05/27 08:22:57;;;;;;;2.37;1.50;;;25.90;52.00;;;;;;5007588;28;20453;-90
2022/05/27 08:25:25;;;;;;;1.70;1.47;;;25.90;51.90;;;;;;5017318;28;20430;-90
2022/05/27 08:27:54;;;;;;;2.17;1.80;;;25.90;51.90;;;;;;5028663;28;20442;-90
2022/05/27 08:30:29;;;;;;;2.87;1.57;;;25.90;51.90;;;;;;5011600;28;20495;-89
2022/05/27 08:32:56;;;;;;;4.10;1.77;;;25.90;51.90;;;;;;5041156;28;20466;-89
2022/05/27 08:38:14;;;;;;;3.00;2.10;;;25.90;52.00;;;;;;5026496;28;20394;-90
2022/05/27 08:41:03;;;;;;;3.13;2.03;;;25.90;52.00;;;;;;5012367;28;20423;-90
2022/05/27 08:43:53;;;;;;;2.77;2.10;;;25.90;52.00;;;;;;5011858;28;20490;-89
2022/05/27 08:46:26;;;;;;;2.50;1.50;;;25.90;52.00;;;;;;5009736;28;20419;-90
2022/05/27 08:48:59;;;;;;;2.87;1.50;;;25.90;52.00;;;;;;5029459;28;20443;-89
2022/05/27 08:51:58;;;;;;;1.73;1.20;;;25.90;52.00;;;;;;5010793;28;20427;-88
2022/05/27 08:54:35;;;;;;;3.10;1.70;;;25.90;52.00;;;;;;5017297;28;20431;-89
2022/05/27 08:59:55;;;;;;;2.00;1.60;;;25.90;52.00;;;;;;5030027;28;20410;-90
2022/05/27 09:02:49;;;;;;;2.90;1.67;;;25.90;52.00;;;;;;5009898;28;20424;-89
2022/05/27 09:05:43;;;;;;;4.33;2.00;;;25.90;52.00;;;;;;5041319;28;20434;-89
2022/05/27 09:08:24;;;;;;;2.17;1.60;;;25.90;52.00;;;;;;5027000;28;20765;-90
2022/05/27 09:11:10;;;;;;;4.43;1.87;;;25.90;52.00;;;;;;5029242;28;20442;-90
2022/05/27 09:13:40;;;;;;;2.90;1.80;;;25.90;52.00;;;;;;5041794;28;20509;-90
2022/05/27 09:16:12;;;;;;;3.20;1.60;;;25.90;52.00;;;;;;5009248;28;20793;-89
2022/05/27 09:25:39;;;;;;;1.87;1.37;;;25.90;52.00;;;;;;5027101;28;20398;-89
2022/05/27 09:28:38;;;;;;;1.50;1.30;;;25.90;52.00;;;;;;5025672;28;20455;-90
2022/05/27 09:31:07;;;;;;;1.90;1.73;;;25.90;52.10;;;;;;4988580;28;20785;-88
2022/05/27 09:33:36;;;;;;;2.40;1.40;;;25.90;52.10;;;;;;5019121;28;20451;-87
2022/05/27 09:36:12;;;;;;;2.00;1.70;;;25.90;52.10;;;;;;5027137;28;20425;-86
2022/05/27 09:38:52;;;;;;;2.10;1.80;;;25.90;52.10;;;;;;5006667;28;20419;-87
2022/05/27 09:41:37;;;;;;;1.93;1.27;;;25.90;52.00;;;;;;4999797;28;20466;-87
2022/05/27 09:44:16;;;;;;;2.20;1.60;;;25.90;52.00;;;;;;4999592;28;20419;-88
2022/05/27 09:53:07;;;;;;;2.20;1.87;;;25.90;52.00;;;;;;5225512;22;20498;-87
2022/05/27 10:10:30;;;;;;;;;;;;;;;;;;;;;
2022/05/27 10:13:30;;;;;;;;;;;;;;;;;;;;;
2022/05/27 10:16:24;;;;;;;1.87;1.30;;;25.90;52.00;;;;;;4989656;28;20455;-87
2022/05/27 10:19:10;;;;;;;2.13;2.00;;;25.90;52.00;;;;;;4982361;28;20419;-88
2022/05/27 10:22:06;;;;;;;3.10;1.93;;;25.90;52.00;;;;;;4958868;28;20419;-87
2022/05/27 10:24:36;;;;;;;2.30;1.60;;;25.90;52.00;;;;;;4959564;28;20487;-88
2022/05/27 10:27:22;;;;;;;2.23;1.90;;;25.90;52.00;;;;;;4974665;28;20412;-88
2022/05/27 10:29:52;;;;;;;2.07;1.40;;;25.90;52.00;;;;;;5007646;28;20471;-88
2022/05/27 10:32:37;;;;;;;2.03;1.57;;;25.90;52.00;;;;;;4991275;28;20456;-88
2022/05/27 10:35:17;;;;;;;2.30;1.50;;;25.90;52.50;;;;;;4990024;28;20401;-89
2022/05/27 10:37:56;;;;;;;2.03;1.40;;;25.90;52.00;;;;;;4991831;28;20412;-89
2022/05/27 10:40:49;;;;;;;2.00;1.70;;;25.90;52.00;;;;;;5007715;28;20419;-88
2022/05/27 10:44:00;;;;;;;2.07;1.50;;;25.90;52.00;;;;;;4990325;28;20495;-88
2022/05/27 10:46:59;;;;;;;4.20;1.80;;;25.90;52.00;;;;;;4948928;29;20846;-88
2022/05/27 10:49:47;;;;;;;2.30;1.80;;;25.90;52.10;;;;;;4945489;29;20437;-89
2022/05/27 10:52:41;;;;;;;6.67;2.50;;;25.90;52.10;;;;;;4983912;28;20458;-88
2022/05/27 10:55:23;;;;;;;7.10;3.10;;;25.90;52.10;;;;;;4967234;29;20406;-90
2022/05/27 11:04:42;;;;;;;4.73;3.10;;;25.90;52.10;;;;;;4947981;29;20866;-88
2022/05/27 11:07:13;;;;;;;9.53;4.47;;;25.90;52.10;;;;;;4948325;29;20438;-88
2022/05/27 11:09:58;;;;;;;7.40;4.07;;;25.90;52.20;;;;;;4947849;29;20426;-89
2022/05/27 11:12:27;;;;;;;7.13;5.07;;;25.90;52.20;;;;;;4935387;29;20529;-89
2022/05/27 11:15:12;;;;;;;9.90;4.53;;;25.90;52.20;;;;;;4951852;29;20431;-89
2022/05/27 11:18:15;;;;;;;11.73;4.37;;;25.90;52.20;;;;;;4950772;29;20431;-90
2022/05/27 11:21:15;;;;;;;13.37;4.50;;;25.90;52.20;;;;;;4951000;29;20442;-88
2022/05/27 11:24:04;;;;;;;12.83;6.03;;;25.90;52.20;;;;;;4998390;28;20420;-89
2022/05/27 11:27:05;;;;;;;13.47;6.57;;;25.90;52.20;;;;;;5009177;28;20423;-88
2022/05/27 11:29:42;;;;;;;24.90;10.10;;;25.90;52.20;;;;;;5005175;28;20481;-89
2022/05/27 11:32:18;;;;;;;39.03;15.30;;;25.80;52.20;;;;;;5008664;28;20490;-90
2022/05/27 11:34:59;;;;;;;40.83;16.93;;;25.80;52.20;;;;;;5008831;28;20420;-89
2022/05/27 11:37:54;;;;;;;46.33;21.13;;;25.80;52.20;;;;;;5008860;28;20420;-88
2022/05/27 11:40:37;;;;;;;69.33;29.27;;;25.90;52.30;;;;;;5016237;28;20439;-90
2022/05/27 11:43:11;;;;;;;74.07;30.17;;;25.80;52.20;;;;;;5025820;28;20409;-89
2022/05/27 11:45:45;;;;;;;95.23;35.20;;;25.80;52.30;;;;;;5009827;28;20435;-89
2022/05/27 11:48:53;;;;;;;99.77;39.43;;;25.80;52.30;;;;;;5010375;28;20400;-88
2022/05/27 11:51:32;;;;;;;99.20;40.30;;;25.90;52.30;;;;;;5010127;28;20419;-89
2022/05/27 11:54:27;;;;;;;106.00;40.47;;;25.80;52.30;;;;;;5009599;28;20432;-89
2022/05/27 11:57:15;;;;;;;108.37;41.80;;;25.90;52.30;;;;;;5009273;28;20416;-89
2022/05/27 11:59:50;;;;;;;96.60;40.90;;;25.80;52.30;;;;;;5009383;28;20436;-88
2022/05/27 12:02:46;;;;;;;109.70;47.00;;;25.80;52.30;;;;;;5026003;28;20493;-88
2022/05/27 12:05:27;;;;;;;108.30;47.00;;;25.90;52.40;;;;;;5009248;28;20424;-88
2022/05/27 12:08:33;;;;;;;111.83;43.53;;;25.80;52.30;;;;;;5024973;28;20891;-88
2022/05/27 12:11:39;;;;;;;;;;;;;;;;;;;;;
2022/05/27 12:14:23;;;;;;;116.53;45.30;;;25.80;52.40;;;;;;4988902;28;20485;-88
2022/05/27 12:16:50;;;;;;;109.03;46.17;;;25.80;52.40;;;;;;4988729;28;20441;-88
2022/05/27 12:19:23;;;;;;;106.37;47.57;;;25.80;52.40;;;;;;4972718;28;20428;-88
2022/05/27 12:22:07;;;;;;;117.43;48.90;;;25.80;52.40;;;;;;4971818;28;20421;-88
2022/05/27 12:24:41;;;;;;;134.30;51.77;;;25.80;52.40;;;;;;4973209;28;20906;-88
2022/05/27 12:27:10;;;;;;;120.70;47.50;;;25.90;52.40;;;;;;4972884;28;20840;-88
2022/05/27 12:29:38;;;;;;;114.90;49.50;;;25.90;52.40;;;;;;4972534;28;20461;-88
2022/05/27 12:32:08;;;;;;;121.57;49.03;;;25.90;52.40;;;;;;4988303;28;20464;-88
2022/05/27 12:34:48;;;;;;;109.60;49.93;;;25.90;52.40;;;;;;4972613;28;20449;-87
2022/05/27 12:37:25;;;;;;;109.57;47.87;;;25.80;52.40;;;;;;4988039;28;20429;-89
2022/05/27 12:43:19;;;;;;;102.13;46.20;;;25.90;52.40;;;;;;4988411;28;20384;-89
2022/05/27 12:45:49;;;;;;;108.73;48.23;;;25.80;52.40;;;;;;4972075;28;20433;-90
2022/05/27 12:48:29;;;;;;;103.93;48.60;;;25.80;52.40;;;;;;4996509;28;20420;-88
2022/05/27 12:50:57;;;;;;;132.43;50.77;;;25.80;52.50;;;;;;4992030;28;20420;-88
2022/05/27 12:53:52;;;;;;;116.03;47.17;;;25.90;52.50;;;;;;4990909;28;20496;-88
2022/05/27 13:02:55;;;;;;;;;;;;;;;;;;;;;
2022/05/27 13:06:07;;;;;;;97.23;44.40;;;25.80;52.50;;;;;;5025724;28;20426;-89
2022/05/27 13:08:46;;;;;;;90.50;41.20;;;25.80;52.50;;;;;;5029223;28;20396;-88
2022/05/27 13:11:25;;;;;;;97.23;42.67;;;25.80;52.50;;;;;;5028735;28;20425;-88
2022/05/27 13:14:15;;;;;;;108.93;45.20;;;25.80;52.50;;;;;;5044808;28;20933;-88
2022/05/27 13:17:04;;;;;;;90.50;44.33;;;25.80;52.50;;;;;;5016086;28;20435;-88
2022/05/27 13:19:49;;;;;;;106.43;43.20;;;25.80;52.50;;;;;;4952718;29;20441;-88
2022/05/27 13:22:51;;;;;;;94.53;43.17;;;25.80;52.50;;;;;;4953176;29;20434;-88
2022/05/27 13:25:24;;;;;;;95.73;41.07;;;25.80;52.50;;;;;;4984312;28;20424;-86
2022/05/27 13:27:59;;;;;;;91.83;42.13;;;25.80;52.50;;;;;;4985183;28;20529;-85
2022/05/27 13:31:03;;;;;;;93.43;44.60;;;25.80;52.50;;;;;;4960733;28;20472;-84
2022/05/27 13:33:48;;;;;;;97.90;43.77;;;25.80;52.50;;;;;;4933342;28;20496;-85
2022/05/27 13:36:38;;;;;;;98.07;42.83;;;25.80;52.60;;;;;;4978520;28;20443;-85
2022/05/27 13:39:10;;;;;;;88.43;43.33;;;25.80;52.60;;;;;;4982916;28;20413;-86
2022/05/27 13:41:46;;;;;;;91.50;43.50;;;25.80;52.60;;;;;;4971909;28;20433;-86
2022/05/27 13:44:14;;;;;;;93.03;41.43;;;25.80;52.60;;;;;;4971850;28;20438;-87
2022/05/27 13:46:50;;;;;;;106.50;43.30;;;25.80;52.60;;;;;;4971240;28;20440;-86
2022/05/27 13:49:39;;;;;;;101.60;43.00;;;25.80;52.60;;;;;;4972171;28;20494;-86
2022/05/27 13:52:14;;;;;;;99.23;40.80;;;25.80;52.60;;;;;;4964808;28;20496;-86
2022/05/27 13:54:42;;;;;;;81.00;38.63;;;25.80;52.70;;;;;;4987641;28;20489;-86
2022/05/27 13:57:11;;;;;;;91.10;39.97;;;25.80;52.70;;;;;;5011804;28;20514;-86
2022/05/27 13:59:52;;;;;;;87.57;40.20;;;25.90;52.70;;;;;;5028245;28;20437;-85
2022/05/27 14:02:26;;;;;;;86.57;38.70;;;25.80;52.70;;;;;;5025011;28;20423;-85
2022/05/27 14:04:56;;;;;;;94.83;39.37;;;25.90;52.80;;;;;;5027698;28;20438;-86
2022/05/27 14:07:33;;;;;;;80.50;36.13;;;25.90;52.80;;;;;;5028247;28;20431;-86
2022/05/27 14:10:05;;;;;;;89.77;40.00;;;25.90;52.70;;;;;;5036002;28;20532;-86
2022/05/27 14:12:37;;;;;;;75.90;36.93;;;25.90;52.80;;;;;;5027404;28;20467;-86
2022/05/27 14:15:10;;;;;;;81.93;37.40;;;25.90;52.70;;;;;;5028583;28;20422;-86
2022/05/27 14:17:43;;;;;;;81.67;38.17;;;25.90;52.80;;;;;;5027081;28;20449;-86
2022/05/27 14:23:40;;;;;;;81.13;37.77;;;25.90;52.70;;;;;;5026944;28;20457;-85
2022/05/27 14:26:14;;;;;;;70.87;34.00;;;25.90;52.80;;;;;;5027501;28;20423;-87
2022/05/27 14:28:52;;;;;;;82.40;37.83;;;25.90;53.30;;;;;;5027197;28;20434;-86
2022/05/27 14:31:25;;;;;;;72.30;34.00;;;25.90;53.30;;;;;;5027169;28;20423;-86
2022/05/27 14:33:54;;;;;;;76.70;36.13;;;25.90;52.80;;;;;;5027018;28;20462;-85
2022/05/27 14:36:30;;;;;;;72.63;33.67;;;25.90;52.80;;;;;;5026712;28;20431;-85
2022/05/27 14:39:00;;;;;;;73.20;35.17;;;25.90;52.80;;;;;;5026917;28;20433;-85
2022/05/27 14:41:32;;;;;;;71.40;34.53;;;25.90;52.80;;;;;;5027234;28;20423;-86
2022/05/27 14:44:08;;;;;;;70.93;36.10;;;25.90;52.80;;;;;;5024020;28;20431;-86
2022/05/27 14:46:37;;;;;;;62.50;32.80;;;25.90;52.80;;;;;;5031276;28;20423;-86
2022/05/27 14:49:25;;;;;;;68.37;34.13;;;25.90;52.80;;;;;;5035066;28;20427;-85
2022/05/27 14:51:52;;;;;;;69.63;31.87;;;26.00;52.80;;;;;;5031913;28;20459;-85
2022/05/27 14:54:31;;;;;;;65.50;32.17;;;25.90;52.70;;;;;;5031570;28;20415;-85
2022/05/27 14:57:28;;;;;;;82.27;33.60;;;26.00;52.80;;;;;;5031181;28;20509;-85
2022/05/27 15:00:04;;;;;;;62.83;31.20;;;26.00;52.80;;;;;;5048280;28;20412;-86